sensor_id;sensor_type;location;lat;lon;timestamp;P1;durP1;ratioP1;P2;durP2;ratioP2
34573;SDS011;20809;49.594;8.734;2022-08-21T00:01:00;3.40;;;3.05;;
34573;SDS011;20809;49.594;8.734;2022-08-21T00:04:04;2.92;;;2.63;;
34573;SDS011;20809;49.594;8.734;2022-08-21T00:07:07;2.80;;;2.60;;
34573;SDS011;20809;49.594;8.734;2022-08-21T00:10:08;4.03;;;2.97;;
34573;SDS011;20809;49.594;8.734;2022-08-21T00:13:09;5.13;;;3.10;;
34573;SDS011;20809;49.594;8.734;2022-08-21T00:16:11;5.97;;;2.70;;
34573;SDS011;20809;49.594;8.734;2022-08-21T00:19:12;4.80;;;3.03;;
34573;SDS011;20809;49.594;8.734;2022-08-21T00:22:13;3.10;;;2.80;;
34573;SDS011;20809;49.594;8.734;2022-08-21T00:25:14;2.92;;;2.67;;
34573;SDS011;20809;49.594;8.734;2022-08-21T00:28:15;6.57;;;2.83;;
34573;SDS011;20809;49.594;8.734;2022-08-21T00:31:16;4.28;;;2.83;;
34573;SDS011;20809;49.594;8.734;2022-08-21T00:34:17;3.17;;;2.88;;
34573;SDS011;20809;49.594;8.734;2022-08-21T00:37:18;4.37;;;2.97;;
34573;SDS011;20809;49.594;8.734;2022-08-21T00:40:23;11.23;;;3.22;;
34573;SDS011;20809;49.594;8.734;2022-08-21T00:43:28;3.92;;;3.30;;
34573;SDS011;20809;49.594;8.734;2022-08-21T00:46:30;4.00;;;2.90;;
34573;SDS011;20809;49.594;8.734;2022-08-21T00:49:31;5.75;;;3.45;;
34573;SDS011;20809;49.594;8.734;2022-08-21T00:52:32;4.27;;;3.90;;
34573;SDS011;20809;49.594;8.734;2022-08-21T00:59:10;4.57;;;3.30;;
34573;SDS011;20809;49.594;8.734;2022-08-21T01:02:11;3.88;;;3.50;;
34573;SDS011;20809;49.594;8.734;2022-08-21T01:05:13;4.00;;;3.40;;
34573;SDS011;20809;49.594;8.734;2022-08-21T01:08:15;3.55;;;2.78;;
34573;SDS011;20809;49.594;8.734;2022-08-21T01:11:17;3.67;;;3.13;;
34573;SDS011;20809;49.594;8.734;2022-08-21T01:14:18;4.40;;;3.35;;
34573;SDS011;20809;49.594;8.734;2022-08-21T01:17:19;4.55;;;3.30;;
34573;SDS011;20809;49.594;8.734;2022-08-21T01:20:21;3.22;;;2.92;;
34573;SDS011;20809;49.594;8.734;2022-08-21T01:23:22;3.67;;;3.13;;
34573;SDS011;20809;49.594;8.734;2022-08-21T01:26:25;3.55;;;2.78;;
34573;SDS011;20809;49.594;8.734;2022-08-21T01:32:53;4.30;;;3.50;;
34573;SDS011;20809;49.594;8.734;2022-08-21T01:35:55;5.57;;;3.85;;
34573;SDS011;20809;49.594;8.734;2022-08-21T01:38:56;3.53;;;3.20;;
34573;SDS011;20809;49.594;8.734;2022-08-21T01:41:57;4.13;;;3.20;;
34573;SDS011;20809;49.594;8.734;2022-08-21T01:44:58;4.37;;;3.93;;
34573;SDS011;20809;49.594;8.734;2022-08-21T01:47:59;4.20;;;3.42;;
34573;SDS011;20809;49.594;8.734;2022-08-21T01:50:59;4.38;;;3.70;;
34573;SDS011;20809;49.594;8.734;2022-08-21T01:54:17;8.07;;;3.33;;
34573;SDS011;20809;49.594;8.734;2022-08-21T01:57:18;5.72;;;3.70;;
34573;SDS011;20809;49.594;8.734;2022-08-21T02:00:20;8.88;;;3.60;;
34573;SDS011;20809;49.594;8.734;2022-08-21T02:03:22;5.47;;;3.90;;
34573;SDS011;20809;49.594;8.734;2022-08-21T02:06:23;4.70;;;4.13;;
34573;SDS011;20809;49.594;8.734;2022-08-21T02:09:24;4.03;;;3.55;;
34573;SDS011;20809;49.594;8.734;2022-08-21T02:12:25;5.88;;;4.30;;
34573;SDS011;20809;49.594;8.734;2022-08-21T02:15:27;4.50;;;3.55;;
34573;SDS011;20809;49.594;8.734;2022-08-21T02:18:29;5.65;;;3.60;;
34573;SDS011;20809;49.594;8.734;2022-08-21T02:21:30;5.13;;;4.23;;
34573;SDS011;20809;49.594;8.734;2022-08-21T02:24:31;5.40;;;4.13;;
34573;SDS011;20809;49.594;8.734;2022-08-21T02:27:37;6.77;;;3.87;;
34573;SDS011;20809;49.594;8.734;2022-08-21T02:30:43;5.70;;;4.15;;
34573;SDS011;20809;49.594;8.734;2022-08-21T02:33:47;5.43;;;4.05;;
34573;SDS011;20809;49.594;8.734;2022-08-21T02:36:47;6.57;;;4.15;;
34573;SDS011;20809;49.594;8.734;2022-08-21T02:39:49;6.00;;;4.25;;
34573;SDS011;20809;49.594;8.734;2022-08-21T02:42:50;5.88;;;4.43;;
34573;SDS011;20809;49.594;8.734;2022-08-21T02:45:51;4.47;;;4.05;;
34573;SDS011;20809;49.594;8.734;2022-08-21T02:48:52;4.70;;;3.92;;
34573;SDS011;20809;49.594;8.734;2022-08-21T02:51:53;4.20;;;3.80;;
34573;SDS011;20809;49.594;8.734;2022-08-21T02:54:53;6.20;;;4.50;;
34573;SDS011;20809;49.594;8.734;2022-08-21T02:57:54;5.30;;;4.30;;
34573;SDS011;20809;49.594;8.734;2022-08-21T03:00:56;5.03;;;4.53;;
34573;SDS011;20809;49.594;8.734;2022-08-21T03:07:01;6.97;;;4.10;;
34573;SDS011;20809;49.594;8.734;2022-08-21T03:10:03;7.35;;;4.55;;
34573;SDS011;20809;49.594;8.734;2022-08-21T03:13:04;6.93;;;4.88;;
34573;SDS011;20809;49.594;8.734;2022-08-21T03:16:05;7.53;;;4.53;;
34573;SDS011;20809;49.594;8.734;2022-08-21T03:19:06;6.05;;;4.65;;
34573;SDS011;20809;49.594;8.734;2022-08-21T03:22:07;5.57;;;4.80;;
34573;SDS011;20809;49.594;8.734;2022-08-21T03:25:08;5.53;;;4.95;;
34573;SDS011;20809;49.594;8.734;2022-08-21T03:28:11;4.95;;;4.25;;
34573;SDS011;20809;49.594;8.734;2022-08-21T03:31:14;6.13;;;4.70;;
34573;SDS011;20809;49.594;8.734;2022-08-21T03:34:15;4.93;;;4.43;;
34573;SDS011;20809;49.594;8.734;2022-08-21T03:37:16;7.07;;;4.70;;
34573;SDS011;20809;49.594;8.734;2022-08-21T03:40:18;6.15;;;4.93;;
34573;SDS011;20809;49.594;8.734;2022-08-21T03:43:20;5.18;;;4.68;;
34573;SDS011;20809;49.594;8.734;2022-08-21T03:46:21;7.57;;;4.72;;
34573;SDS011;20809;49.594;8.734;2022-08-21T03:49:22;6.10;;;5.20;;
34573;SDS011;20809;49.594;8.734;2022-08-21T03:52:23;6.65;;;5.30;;
34573;SDS011;20809;49.594;8.734;2022-08-21T03:55:25;8.20;;;5.15;;
34573;SDS011;20809;49.594;8.734;2022-08-21T03:58:28;7.22;;;4.40;;
34573;SDS011;20809;49.594;8.734;2022-08-21T04:04:30;8.15;;;5.32;;
34573;SDS011;20809;49.594;8.734;2022-08-21T04:07:33;6.82;;;5.18;;
34573;SDS011;20809;49.594;8.734;2022-08-21T04:10:36;8.60;;;4.85;;
34573;SDS011;20809;49.594;8.734;2022-08-21T04:13:44;6.20;;;5.18;;
34573;SDS011;20809;49.594;8.734;2022-08-21T04:16:45;6.70;;;5.00;;
34573;SDS011;20809;49.594;8.734;2022-08-21T04:19:47;7.00;;;4.88;;
34573;SDS011;20809;49.594;8.734;2022-08-21T04:22:49;6.70;;;5.20;;
34573;SDS011;20809;49.594;8.734;2022-08-21T04:25:52;7.10;;;5.28;;
34573;SDS011;20809;49.594;8.734;2022-08-21T04:28:55;7.22;;;5.68;;
34573;SDS011;20809;49.594;8.734;2022-08-21T04:31:57;7.38;;;5.25;;
34573;SDS011;20809;49.594;8.734;2022-08-21T04:35:03;7.47;;;5.30;;
34573;SDS011;20809;49.594;8.734;2022-08-21T04:38:06;5.97;;;5.32;;
34573;SDS011;20809;49.594;8.734;2022-08-21T04:41:07;8.07;;;5.13;;
34573;SDS011;20809;49.594;8.734;2022-08-21T04:44:20;5.23;;;4.73;;
34573;SDS011;20809;49.594;8.734;2022-08-21T04:47:24;6.55;;;5.15;;
34573;SDS011;20809;49.594;8.734;2022-08-21T04:50:27;7.45;;;5.53;;
34573;SDS011;20809;49.594;8.734;2022-08-21T04:57:08;7.57;;;5.32;;
34573;SDS011;20809;49.594;8.734;2022-08-21T05:00:11;7.25;;;5.32;;
34573;SDS011;20809;49.594;8.734;2022-08-21T05:03:13;10.57;;;5.82;;
34573;SDS011;20809;49.594;8.734;2022-08-21T05:06:16;7.28;;;5.30;;
34573;SDS011;20809;49.594;8.734;2022-08-21T05:09:17;5.82;;;5.20;;
34573;SDS011;20809;49.594;8.734;2022-08-21T05:12:19;6.18;;;5.07;;
34573;SDS011;20809;49.594;8.734;2022-08-21T05:15:20;6.07;;;5.35;;
34573;SDS011;20809;49.594;8.734;2022-08-21T05:18:21;6.25;;;5.55;;
34573;SDS011;20809;49.594;8.734;2022-08-21T05:21:25;5.85;;;4.70;;
34573;SDS011;20809;49.594;8.734;2022-08-21T05:24:26;5.93;;;4.85;;
34573;SDS011;20809;49.594;8.734;2022-08-21T05:27:39;5.78;;;4.93;;
34573;SDS011;20809;49.594;8.734;2022-08-21T05:30:49;6.50;;;5.35;;
34573;SDS011;20809;49.594;8.734;2022-08-21T05:33:51;7.82;;;5.53;;
34573;SDS011;20809;49.594;8.734;2022-08-21T05:36:53;7.85;;;5.25;;
34573;SDS011;20809;49.594;8.734;2022-08-21T05:39:57;6.35;;;5.45;;
34573;SDS011;20809;49.594;8.734;2022-08-21T05:42:59;5.93;;;4.60;;
34573;SDS011;20809;49.594;8.734;2022-08-21T05:46:04;8.38;;;6.15;;
34573;SDS011;20809;49.594;8.734;2022-08-21T05:49:10;6.32;;;4.85;;
34573;SDS011;20809;49.594;8.734;2022-08-21T05:52:17;7.03;;;5.20;;
34573;SDS011;20809;49.594;8.734;2022-08-21T05:55:24;6.63;;;5.72;;
34573;SDS011;20809;49.594;8.734;2022-08-21T05:58:28;8.32;;;5.55;;
34573;SDS011;20809;49.594;8.734;2022-08-21T06:01:30;4.38;;;3.97;;
34573;SDS011;20809;49.594;8.734;2022-08-21T06:04:34;5.50;;;4.80;;
34573;SDS011;20809;49.594;8.734;2022-08-21T06:07:36;4.78;;;3.97;;
34573;SDS011;20809;49.594;8.734;2022-08-21T06:10:37;4.75;;;4.13;;
34573;SDS011;20809;49.594;8.734;2022-08-21T06:13:38;5.80;;;4.88;;
34573;SDS011;20809;49.594;8.734;2022-08-21T06:16:39;4.82;;;4.32;;
34573;SDS011;20809;49.594;8.734;2022-08-21T06:19:39;5.15;;;3.88;;
34573;SDS011;20809;49.594;8.734;2022-08-21T06:22:40;4.03;;;3.63;;
34573;SDS011;20809;49.594;8.734;2022-08-21T06:25:41;4.80;;;3.10;;
34573;SDS011;20809;49.594;8.734;2022-08-21T06:28:42;4.82;;;3.42;;
34573;SDS011;20809;49.594;8.734;2022-08-21T06:31:43;6.40;;;3.63;;
34573;SDS011;20809;49.594;8.734;2022-08-21T06:34:50;4.15;;;3.75;;
34573;SDS011;20809;49.594;8.734;2022-08-21T06:37:56;4.85;;;3.80;;
34573;SDS011;20809;49.594;8.734;2022-08-21T06:41:00;4.57;;;3.38;;
34573;SDS011;20809;49.594;8.734;2022-08-21T06:44:02;4.78;;;3.97;;
34573;SDS011;20809;49.594;8.734;2022-08-21T06:47:03;3.80;;;3.50;;
34573;SDS011;20809;49.594;8.734;2022-08-21T06:50:04;4.10;;;3.65;;
34573;SDS011;20809;49.594;8.734;2022-08-21T06:53:09;4.75;;;4.15;;
34573;SDS011;20809;49.594;8.734;2022-08-21T06:56:12;7.95;;;4.35;;
34573;SDS011;20809;49.594;8.734;2022-08-21T06:59:13;4.30;;;3.75;;
34573;SDS011;20809;49.594;8.734;2022-08-21T07:02:14;6.90;;;4.00;;
34573;SDS011;20809;49.594;8.734;2022-08-21T07:05:15;5.78;;;4.20;;
34573;SDS011;20809;49.594;8.734;2022-08-21T07:08:15;7.55;;;5.38;;
34573;SDS011;20809;49.594;8.734;2022-08-21T07:11:20;3.75;;;3.17;;
34573;SDS011;20809;49.594;8.734;2022-08-21T07:14:22;4.00;;;3.70;;
34573;SDS011;20809;49.594;8.734;2022-08-21T07:17:23;7.88;;;4.60;;
34573;SDS011;20809;49.594;8.734;2022-08-21T07:20:24;3.60;;;3.30;;
34573;SDS011;20809;49.594;8.734;2022-08-21T07:23:43;5.32;;;3.80;;
34573;SDS011;20809;49.594;8.734;2022-08-21T07:26:46;6.22;;;3.83;;
34573;SDS011;20809;49.594;8.734;2022-08-21T07:29:47;4.43;;;3.28;;
34573;SDS011;20809;49.594;8.734;2022-08-21T07:32:47;4.25;;;3.28;;
34573;SDS011;20809;49.594;8.734;2022-08-21T07:35:49;6.13;;;3.55;;
34573;SDS011;20809;49.594;8.734;2022-08-21T07:38:50;4.28;;;3.25;;
34573;SDS011;20809;49.594;8.734;2022-08-21T07:41:51;6.60;;;3.83;;
34573;SDS011;20809;49.594;8.734;2022-08-21T07:44:51;5.57;;;4.00;;
34573;SDS011;20809;49.594;8.734;2022-08-21T07:47:52;6.88;;;3.63;;
34573;SDS011;20809;49.594;8.734;2022-08-21T07:50:53;4.85;;;4.00;;
34573;SDS011;20809;49.594;8.734;2022-08-21T07:53:55;5.72;;;3.28;;
34573;SDS011;20809;49.594;8.734;2022-08-21T07:56:58;4.18;;;3.35;;
34573;SDS011;20809;49.594;8.734;2022-08-21T07:59:59;3.88;;;3.40;;
34573;SDS011;20809;49.594;8.734;2022-08-21T08:03:00;4.32;;;3.78;;
34573;SDS011;20809;49.594;8.734;2022-08-21T08:06:02;7.05;;;4.32;;
34573;SDS011;20809;49.594;8.734;2022-08-21T08:09:04;5.07;;;3.30;;
34573;SDS011;20809;49.594;8.734;2022-08-21T08:12:05;6.80;;;2.92;;
34573;SDS011;20809;49.594;8.734;2022-08-21T08:15:07;5.43;;;3.47;;
34573;SDS011;20809;49.594;8.734;2022-08-21T08:18:11;4.00;;;3.22;;
34573;SDS011;20809;49.594;8.734;2022-08-21T08:21:12;4.20;;;3.08;;
34573;SDS011;20809;49.594;8.734;2022-08-21T08:24:13;6.18;;;2.72;;
34573;SDS011;20809;49.594;8.734;2022-08-21T08:27:15;5.20;;;4.10;;
34573;SDS011;20809;49.594;8.734;2022-08-21T08:30:16;3.85;;;3.45;;
34573;SDS011;20809;49.594;8.734;2022-08-21T08:33:18;6.05;;;3.70;;
34573;SDS011;20809;49.594;8.734;2022-08-21T08:36:19;3.92;;;3.33;;
34573;SDS011;20809;49.594;8.734;2022-08-21T08:39:32;3.30;;;3.00;;
34573;SDS011;20809;49.594;8.734;2022-08-21T08:42:34;5.07;;;3.28;;
34573;SDS011;20809;49.594;8.734;2022-08-21T08:45:41;3.97;;;2.83;;
34573;SDS011;20809;49.594;8.734;2022-08-21T08:48:50;6.60;;;3.20;;
34573;SDS011;20809;49.594;8.734;2022-08-21T08:55:03;7.78;;;3.83;;
34573;SDS011;20809;49.594;8.734;2022-08-21T08:58:11;5.45;;;3.10;;
34573;SDS011;20809;49.594;8.734;2022-08-21T09:01:22;6.07;;;4.00;;
34573;SDS011;20809;49.594;8.734;2022-08-21T09:04:25;6.70;;;3.58;;
34573;SDS011;20809;49.594;8.734;2022-08-21T09:10:52;6.20;;;3.17;;
34573;SDS011;20809;49.594;8.734;2022-08-21T09:17:50;5.05;;;4.43;;
34573;SDS011;20809;49.594;8.734;2022-08-21T09:24:08;4.22;;;3.30;;
34573;SDS011;20809;49.594;8.734;2022-08-21T09:27:20;4.65;;;2.90;;
34573;SDS011;20809;49.594;8.734;2022-08-21T09:30:27;4.90;;;2.95;;
34573;SDS011;20809;49.594;8.734;2022-08-21T09:33:35;4.65;;;2.78;;
34573;SDS011;20809;49.594;8.734;2022-08-21T09:39:43;4.75;;;3.05;;
34573;SDS011;20809;49.594;8.734;2022-08-21T09:42:53;4.05;;;2.75;;
34573;SDS011;20809;49.594;8.734;2022-08-21T09:46:22;4.50;;;3.40;;
34573;SDS011;20809;49.594;8.734;2022-08-21T09:49:34;6.30;;;3.50;;
34573;SDS011;20809;49.594;8.734;2022-08-21T09:52:48;5.00;;;3.10;;
34573;SDS011;20809;49.594;8.734;2022-08-21T09:56:02;4.17;;;2.40;;
34573;SDS011;20809;49.594;8.734;2022-08-21T09:59:28;4.43;;;2.70;;
34573;SDS011;20809;49.594;8.734;2022-08-21T10:02:32;5.22;;;3.22;;
34573;SDS011;20809;49.594;8.734;2022-08-21T10:05:34;5.75;;;2.47;;
34573;SDS011;20809;49.594;8.734;2022-08-21T10:08:37;5.90;;;2.38;;
34573;SDS011;20809;49.594;8.734;2022-08-21T10:11:40;4.07;;;2.47;;
34573;SDS011;20809;49.594;8.734;2022-08-21T10:21:58;8.30;;;2.30;;
34573;SDS011;20809;49.594;8.734;2022-08-21T10:29:09;5.95;;;2.20;;
34573;SDS011;20809;49.594;8.734;2022-08-21T10:35:27;4.25;;;2.75;;
34573;SDS011;20809;49.594;8.734;2022-08-21T10:42:04;7.15;;;3.38;;
34573;SDS011;20809;49.594;8.734;2022-08-21T10:48:47;3.35;;;2.38;;
34573;SDS011;20809;49.594;8.734;2022-08-21T10:55:21;6.70;;;3.15;;
34573;SDS011;20809;49.594;8.734;2022-08-21T10:58:29;5.18;;;2.72;;
34573;SDS011;20809;49.594;8.734;2022-08-21T11:01:47;4.45;;;3.28;;
34573;SDS011;20809;49.594;8.734;2022-08-21T11:08:14;6.63;;;2.67;;
34573;SDS011;20809;49.594;8.734;2022-08-21T11:11:25;4.32;;;3.45;;
34573;SDS011;20809;49.594;8.734;2022-08-21T11:14:49;3.47;;;2.45;;
34573;SDS011;20809;49.594;8.734;2022-08-21T11:18:10;3.63;;;2.53;;
34573;SDS011;20809;49.594;8.734;2022-08-21T11:24:40;7.15;;;3.00;;
34573;SDS011;20809;49.594;8.734;2022-08-21T11:34:50;2.75;;;2.50;;
34573;SDS011;20809;49.594;8.734;2022-08-21T11:51:15;4.72;;;2.20;;
34573;SDS011;20809;49.594;8.734;2022-08-21T11:57:34;5.80;;;2.95;;
34573;SDS011;20809;49.594;8.734;2022-08-21T12:00:40;7.13;;;2.30;;
34573;SDS011;20809;49.594;8.734;2022-08-21T12:03:56;3.05;;;2.10;;
34573;SDS011;20809;49.594;8.734;2022-08-21T12:07:31;5.60;;;2.40;;
34573;SDS011;20809;49.594;8.734;2022-08-21T12:10:34;3.33;;;2.45;;
34573;SDS011;20809;49.594;8.734;2022-08-21T12:13:51;3.92;;;2.10;;
34573;SDS011;20809;49.594;8.734;2022-08-21T12:16:52;3.38;;;2.10;;
34573;SDS011;20809;49.594;8.734;2022-08-21T12:20:16;4.05;;;2.35;;
34573;SDS011;20809;49.594;8.734;2022-08-21T12:23:28;4.28;;;2.42;;
34573;SDS011;20809;49.594;8.734;2022-08-21T12:26:53;3.25;;;2.05;;
34573;SDS011;20809;49.594;8.734;2022-08-21T12:29:56;3.90;;;2.00;;
34573;SDS011;20809;49.594;8.734;2022-08-21T12:33:02;4.32;;;2.30;;
34573;SDS011;20809;49.594;8.734;2022-08-21T12:36:10;2.25;;;1.88;;
34573;SDS011;20809;49.594;8.734;2022-08-21T12:39:22;5.18;;;1.95;;
34573;SDS011;20809;49.594;8.734;2022-08-21T12:42:37;2.92;;;2.17;;
34573;SDS011;20809;49.594;8.734;2022-08-21T12:45:44;3.40;;;2.15;;
34573;SDS011;20809;49.594;8.734;2022-08-21T12:48:52;4.57;;;2.58;;
34573;SDS011;20809;49.594;8.734;2022-08-21T12:52:21;3.50;;;2.10;;
34573;SDS011;20809;49.594;8.734;2022-08-21T12:55:26;4.30;;;2.60;;
34573;SDS011;20809;49.594;8.734;2022-08-21T12:58:34;4.72;;;2.15;;
34573;SDS011;20809;49.594;8.734;2022-08-21T13:04:40;5.57;;;2.40;;
34573;SDS011;20809;49.594;8.734;2022-08-21T13:07:50;2.97;;;2.17;;
34573;SDS011;20809;49.594;8.734;2022-08-21T13:11:02;2.50;;;2.30;;
34573;SDS011;20809;49.594;8.734;2022-08-21T13:14:14;3.03;;;2.22;;
34573;SDS011;20809;49.594;8.734;2022-08-21T13:17:38;3.17;;;1.92;;
34573;SDS011;20809;49.594;8.734;2022-08-21T13:20:41;3.33;;;2.30;;
34573;SDS011;20809;49.594;8.734;2022-08-21T13:23:42;2.72;;;2.50;;
34573;SDS011;20809;49.594;8.734;2022-08-21T13:26:43;7.07;;;2.50;;
34573;SDS011;20809;49.594;8.734;2022-08-21T13:29:44;3.67;;;2.22;;
34573;SDS011;20809;49.594;8.734;2022-08-21T13:32:47;3.50;;;2.40;;
34573;SDS011;20809;49.594;8.734;2022-08-21T13:38:56;3.65;;;2.53;;
34573;SDS011;20809;49.594;8.734;2022-08-21T13:41:58;5.45;;;3.00;;
34573;SDS011;20809;49.594;8.734;2022-08-21T13:45:01;2.67;;;2.42;;
34573;SDS011;20809;49.594;8.734;2022-08-21T13:48:02;3.10;;;2.67;;
34573;SDS011;20809;49.594;8.734;2022-08-21T13:51:05;3.03;;;2.50;;
34573;SDS011;20809;49.594;8.734;2022-08-21T13:57:31;3.33;;;2.13;;
34573;SDS011;20809;49.594;8.734;2022-08-21T14:00:35;6.63;;;2.58;;
34573;SDS011;20809;49.594;8.734;2022-08-21T14:03:49;4.50;;;2.63;;
34573;SDS011;20809;49.594;8.734;2022-08-21T14:06:52;3.65;;;2.42;;
34573;SDS011;20809;49.594;8.734;2022-08-21T14:09:53;3.85;;;2.75;;
34573;SDS011;20809;49.594;8.734;2022-08-21T14:12:55;3.45;;;2.30;;
34573;SDS011;20809;49.594;8.734;2022-08-21T14:16:01;3.92;;;3.08;;
34573;SDS011;20809;49.594;8.734;2022-08-21T14:25:42;4.07;;;2.53;;
34573;SDS011;20809;49.594;8.734;2022-08-21T14:28:44;5.82;;;2.65;;
34573;SDS011;20809;49.594;8.734;2022-08-21T14:31:52;3.13;;;2.30;;
34573;SDS011;20809;49.594;8.734;2022-08-21T14:34:56;5.45;;;2.83;;
34573;SDS011;20809;49.594;8.734;2022-08-21T14:37:57;4.38;;;2.45;;
34573;SDS011;20809;49.594;8.734;2022-08-21T14:41:04;2.45;;;2.00;;
34573;SDS011;20809;49.594;8.734;2022-08-21T14:44:16;5.60;;;2.42;;
34573;SDS011;20809;49.594;8.734;2022-08-21T14:47:18;2.50;;;2.20;;
34573;SDS011;20809;49.594;8.734;2022-08-21T14:50:19;3.20;;;2.40;;
34573;SDS011;20809;49.594;8.734;2022-08-21T14:53:20;4.32;;;2.63;;
34573;SDS011;20809;49.594;8.734;2022-08-21T14:56:20;6.13;;;2.55;;
34573;SDS011;20809;49.594;8.734;2022-08-21T14:59:25;3.20;;;1.95;;
34573;SDS011;20809;49.594;8.734;2022-08-21T15:02:28;3.88;;;2.42;;
34573;SDS011;20809;49.594;8.734;2022-08-21T15:05:29;3.80;;;2.50;;
34573;SDS011;20809;49.594;8.734;2022-08-21T15:08:30;5.47;;;2.45;;
34573;SDS011;20809;49.594;8.734;2022-08-21T15:11:32;4.00;;;2.65;;
34573;SDS011;20809;49.594;8.734;2022-08-21T15:14:34;2.72;;;2.45;;
34573;SDS011;20809;49.594;8.734;2022-08-21T15:17:38;5.30;;;2.30;;
34573;SDS011;20809;49.594;8.734;2022-08-21T15:20:38;5.28;;;2.50;;
34573;SDS011;20809;49.594;8.734;2022-08-21T15:23:39;3.28;;;2.03;;
34573;SDS011;20809;49.594;8.734;2022-08-21T15:26:40;2.00;;;1.80;;
34573;SDS011;20809;49.594;8.734;2022-08-21T15:29:42;3.78;;;2.47;;
34573;SDS011;20809;49.594;8.734;2022-08-21T15:32:43;3.53;;;2.45;;
34573;SDS011;20809;49.594;8.734;2022-08-21T15:35:44;2.83;;;2.60;;
34573;SDS011;20809;49.594;8.734;2022-08-21T15:38:46;4.07;;;2.38;;
34573;SDS011;20809;49.594;8.734;2022-08-21T15:41:47;2.92;;;2.03;;
34573;SDS011;20809;49.594;8.734;2022-08-21T15:44:48;4.50;;;2.20;;
34573;SDS011;20809;49.594;8.734;2022-08-21T15:47:50;3.25;;;2.25;;
34573;SDS011;20809;49.594;8.734;2022-08-21T15:50:51;3.88;;;2.13;;
34573;SDS011;20809;49.594;8.734;2022-08-21T15:53:52;2.92;;;1.88;;
34573;SDS011;20809;49.594;8.734;2022-08-21T15:56:52;2.60;;;1.83;;
34573;SDS011;20809;49.594;8.734;2022-08-21T15:59:55;4.63;;;2.72;;
34573;SDS011;20809;49.594;8.734;2022-08-21T16:02:58;3.40;;;2.17;;
34573;SDS011;20809;49.594;8.734;2022-08-21T16:06:02;4.65;;;2.30;;
34573;SDS011;20809;49.594;8.734;2022-08-21T16:09:03;3.50;;;1.80;;
34573;SDS011;20809;49.594;8.734;2022-08-21T16:12:05;3.00;;;2.05;;
34573;SDS011;20809;49.594;8.734;2022-08-21T16:15:07;5.22;;;2.33;;
34573;SDS011;20809;49.594;8.734;2022-08-21T16:18:10;2.50;;;1.80;;
34573;SDS011;20809;49.594;8.734;2022-08-21T16:21:11;4.85;;;2.55;;
34573;SDS011;20809;49.594;8.734;2022-08-21T16:24:15;4.45;;;2.00;;
34573;SDS011;20809;49.594;8.734;2022-08-21T16:27:16;2.05;;;1.58;;
34573;SDS011;20809;49.594;8.734;2022-08-21T16:30:18;3.20;;;2.03;;
34573;SDS011;20809;49.594;8.734;2022-08-21T16:33:31;3.95;;;2.38;;
34573;SDS011;20809;49.594;8.734;2022-08-21T16:36:34;3.42;;;2.25;;
34573;SDS011;20809;49.594;8.734;2022-08-21T16:39:35;4.13;;;2.13;;
34573;SDS011;20809;49.594;8.734;2022-08-21T16:42:36;3.90;;;2.53;;
34573;SDS011;20809;49.594;8.734;2022-08-21T16:45:38;2.30;;;1.90;;
34573;SDS011;20809;49.594;8.734;2022-08-21T16:48:41;2.28;;;1.88;;
34573;SDS011;20809;49.594;8.734;2022-08-21T16:51:43;4.22;;;1.95;;
34573;SDS011;20809;49.594;8.734;2022-08-21T16:54:44;2.72;;;1.52;;
34573;SDS011;20809;49.594;8.734;2022-08-21T16:57:45;3.25;;;2.08;;
34573;SDS011;20809;49.594;8.734;2022-08-21T17:00:46;3.85;;;2.15;;
34573;SDS011;20809;49.594;8.734;2022-08-21T17:06:50;4.90;;;2.35;;
34573;SDS011;20809;49.594;8.734;2022-08-21T17:09:52;4.45;;;2.00;;
34573;SDS011;20809;49.594;8.734;2022-08-21T17:15:55;5.50;;;1.95;;
34573;SDS011;20809;49.594;8.734;2022-08-21T17:18:56;4.00;;;2.20;;
34573;SDS011;20809;49.594;8.734;2022-08-21T17:24:58;5.78;;;2.47;;
34573;SDS011;20809;49.594;8.734;2022-08-21T17:30:59;3.67;;;1.90;;
34573;SDS011;20809;49.594;8.734;2022-08-21T17:34:01;4.93;;;2.10;;
34573;SDS011;20809;49.594;8.734;2022-08-21T17:37:02;3.40;;;2.25;;
34573;SDS011;20809;49.594;8.734;2022-08-21T17:40:04;4.03;;;1.83;;
34573;SDS011;20809;49.594;8.734;2022-08-21T17:43:09;4.70;;;1.75;;
34573;SDS011;20809;49.594;8.734;2022-08-21T17:46:16;3.55;;;2.42;;
34573;SDS011;20809;49.594;8.734;2022-08-21T17:49:19;6.60;;;3.10;;
34573;SDS011;20809;49.594;8.734;2022-08-21T17:52:20;3.80;;;2.45;;
34573;SDS011;20809;49.594;8.734;2022-08-21T17:55:22;3.22;;;2.25;;
34573;SDS011;20809;49.594;8.734;2022-08-21T18:01:24;6.07;;;2.33;;
34573;SDS011;20809;49.594;8.734;2022-08-21T18:04:29;4.68;;;2.55;;
34573;SDS011;20809;49.594;8.734;2022-08-21T18:07:30;5.10;;;2.35;;
34573;SDS011;20809;49.594;8.734;2022-08-21T18:10:31;4.85;;;2.10;;
34573;SDS011;20809;49.594;8.734;2022-08-21T18:13:33;2.45;;;1.58;;
34573;SDS011;20809;49.594;8.734;2022-08-21T18:16:36;4.13;;;1.90;;
34573;SDS011;20809;49.594;8.734;2022-08-21T18:22:38;4.00;;;2.00;;
34573;SDS011;20809;49.594;8.734;2022-08-21T18:25:43;2.72;;;1.95;;
34573;SDS011;20809;49.594;8.734;2022-08-21T18:28:48;3.55;;;2.10;;
34573;SDS011;20809;49.594;8.734;2022-08-21T18:31:49;3.47;;;2.05;;
34573;SDS011;20809;49.594;8.734;2022-08-21T18:34:52;3.95;;;2.10;;
34573;SDS011;20809;49.594;8.734;2022-08-21T18:37:54;3.50;;;2.30;;
34573;SDS011;20809;49.594;8.734;2022-08-21T18:40:55;5.30;;;2.00;;
34573;SDS011;20809;49.594;8.734;2022-08-21T18:43:58;5.15;;;2.75;;
34573;SDS011;20809;49.594;8.734;2022-08-21T18:47:00;2.25;;;1.90;;
34573;SDS011;20809;49.594;8.734;2022-08-21T18:50:05;3.70;;;2.28;;
34573;SDS011;20809;49.594;8.734;2022-08-21T18:53:06;3.85;;;1.75;;
34573;SDS011;20809;49.594;8.734;2022-08-21T18:56:07;4.25;;;2.22;;
34573;SDS011;20809;49.594;8.734;2022-08-21T18:59:08;6.65;;;2.30;;
34573;SDS011;20809;49.594;8.734;2022-08-21T19:02:10;4.93;;;2.25;;
34573;SDS011;20809;49.594;8.734;2022-08-21T19:05:12;5.20;;;2.35;;
34573;SDS011;20809;49.594;8.734;2022-08-21T19:08:15;4.22;;;1.90;;
34573;SDS011;20809;49.594;8.734;2022-08-21T19:11:18;3.00;;;2.17;;
34573;SDS011;20809;49.594;8.734;2022-08-21T19:14:18;6.03;;;2.00;;
34573;SDS011;20809;49.594;8.734;2022-08-21T19:17:20;5.28;;;1.73;;
34573;SDS011;20809;49.594;8.734;2022-08-21T19:20:28;7.43;;;4.05;;
34573;SDS011;20809;49.594;8.734;2022-08-21T19:23:33;6.97;;;3.75;;
34573;SDS011;20809;49.594;8.734;2022-08-21T19:26:34;3.45;;;1.90;;
34573;SDS011;20809;49.594;8.734;2022-08-21T19:29:36;5.80;;;2.38;;
34573;SDS011;20809;49.594;8.734;2022-08-21T19:32:39;4.75;;;2.20;;
34573;SDS011;20809;49.594;8.734;2022-08-21T19:35:43;4.45;;;2.15;;
34573;SDS011;20809;49.594;8.734;2022-08-21T19:38:44;2.05;;;1.80;;
34573;SDS011;20809;49.594;8.734;2022-08-21T19:41:47;5.65;;;2.00;;
34573;SDS011;20809;49.594;8.734;2022-08-21T19:44:51;9.50;;;2.22;;
34573;SDS011;20809;49.594;8.734;2022-08-21T19:47:51;2.75;;;2.05;;
34573;SDS011;20809;49.594;8.734;2022-08-21T19:50:52;3.30;;;1.90;;
34573;SDS011;20809;49.594;8.734;2022-08-21T19:53:54;4.93;;;1.92;;
34573;SDS011;20809;49.594;8.734;2022-08-21T19:56:56;4.07;;;1.92;;
34573;SDS011;20809;49.594;8.734;2022-08-21T19:59:57;4.28;;;2.03;;
34573;SDS011;20809;49.594;8.734;2022-08-21T20:02:58;7.15;;;2.33;;
34573;SDS011;20809;49.594;8.734;2022-08-21T20:05:59;4.60;;;1.80;;
34573;SDS011;20809;49.594;8.734;2022-08-21T20:09:00;4.00;;;1.67;;
34573;SDS011;20809;49.594;8.734;2022-08-21T20:15:04;2.70;;;2.03;;
34573;SDS011;20809;49.594;8.734;2022-08-21T20:18:05;4.40;;;2.30;;
34573;SDS011;20809;49.594;8.734;2022-08-21T20:21:07;5.30;;;1.90;;
34573;SDS011;20809;49.594;8.734;2022-08-21T20:24:10;2.78;;;2.05;;
34573;SDS011;20809;49.594;8.734;2022-08-21T20:27:13;3.28;;;2.42;;
34573;SDS011;20809;49.594;8.734;2022-08-21T20:30:19;6.90;;;2.45;;
34573;SDS011;20809;49.594;8.734;2022-08-21T20:33:20;3.63;;;1.90;;